Time;durP1;ratioP1;P1;durP2;ratioP2;P2;SDS_P1;SDS_P2;PMS_P1;PMS_P2;Temp;Humidity;BMP_temperature;BMP_pressure;BME280_temperature;BME280_humidity;BME280_pressure;Samples;Min_cycle;Max_cycle;Signal;HPM_P1;HPM_P2
2022/09/02 00:00:05;;;;;;;;;;;;;;;17.53;60.36;101634.03;5034011;28;20298;-42
2022/09/02 00:02:31;;;;;;;;;;;;;;;17.48;61.06;101628.38;5022263;28;19912;-44
2022/09/02 00:04:56;;;;;;;;;;;;;;;17.46;60.64;101631.25;5035834;28;19979;-42
2022/09/02 00:07:21;;;;;;;;;;;;;;;17.45;61.03;101631.47;5036081;28;20350;-43
2022/09/02 00:09:46;;;;;;;;;;;;;;;17.41;60.52;101625.56;5036655;28;19992;-44
2022/09/02 00:12:11;;;;;;;;;;;;;;;17.40;60.62;101623.09;5035978;28;20011;-44
2022/09/02 00:14:38;;;;;;;;;;;;;;;17.38;60.66;101630.53;5035832;28;20363;-43
2022/09/02 00:17:04;;;;;;;;;;;;;;;17.34;61.20;101628.22;5036068;28;20383;-45
2022/09/02 00:19:30;;;;;;;;;;;;;;;17.30;61.33;101617.97;5035226;28;19939;-43
2022/09/02 00:21:56;;;;;;;;;;;;;;;17.27;59.09;101615.63;5028719;28;20307;-44
2022/09/02 00:24:22;;;;;;;;;;;;;;;17.26;61.29;101613.94;5016179;28;19952;-43
2022/09/02 00:26:47;;;;;;;;;;;;;;;17.22;61.35;101618.06;5019972;28;20235;-43
2022/09/02 00:29:14;;;;;;;;;;;;;;;17.20;60.11;101612.03;5034453;28;19913;-44
2022/09/02 00:31:40;;;;;;;;;;;;;;;17.15;61.73;101610.69;5020226;28;19908;-44
2022/09/02 00:34:05;;;;;;;;;;;;;;;17.13;61.98;101604.66;5036539;28;20457;-43
2022/09/02 00:36:32;;;;;;;;;;;;;;;17.11;61.65;101606.69;5035225;28;19912;-43
2022/09/02 00:38:57;;;;;;;;;;;;;;;17.08;62.59;101608.94;5028744;28;19909;-43
2022/09/02 00:41:24;;;;;;;;;;;;;;;17.02;63.17;101605.09;5060665;28;20018;-45
2022/09/02 00:43:50;;;;;;;;;;;;;;;17.01;62.18;101603.44;5036156;28;20378;-44
2022/09/02 00:46:18;;;;;;;;;;;;;;;16.98;62.79;101602.97;5034595;28;19913;-42
2022/09/02 00:48:47;;;;;;;;;;;;;;;16.96;62.67;101604.00;5035834;28;19959;-46
2022/09/02 00:51:13;;;;;;;;;;;;;;;16.93;63.02;101590.03;5034988;28;20384;-46
2022/09/02 00:53:40;;;;;;;;;;;;;;;16.91;62.24;101598.31;5035047;28;19913;-43
2022/09/02 00:56:07;;;;;;;;;;;;;;;16.88;63.50;101601.38;5028824;28;19917;-46
2022/09/02 00:58:33;;;;;;;;;;;;;;;16.87;63.65;101594.31;5029500;28;19909;-43
2022/09/02 01:00:59;;;;;;;;;;;;;;;16.85;62.75;101592.81;5034595;28;20588;-45
2022/09/02 01:03:26;;;;;;;;;;;;;;;16.82;63.28;101593.13;5034997;28;20005;-44
2022/09/02 01:05:52;;;;;;;;;;;;;;;16.78;64.51;101590.84;5034217;28;20225;-43
2022/09/02 01:08:19;;;;;;;;;;;;;;;16.74;65.06;101592.22;5036268;28;20359;-46
2022/09/02 01:10:46;;;;;;;;;;;;;;;16.72;64.19;101588.88;5035825;28;19915;-45
2022/09/02 01:13:14;;;;;;;;;;;;;;;16.71;62.99;101587.19;5035980;28;19982;-45
2022/09/02 01:15:43;;;;;;;;;;;;;;;16.69;64.72;101586.53;5034954;28;19916;-44
2022/09/02 01:18:09;;;;;;;;;;;;;;;16.67;64.45;101591.28;5033320;28;19972;-45
2022/09/02 01:20:34;;;;;;;;;;;;;;;16.64;63.64;101588.94;5035344;28;20348;-43
2022/09/02 01:23:01;;;;;;;;;;;;;;;16.60;64.25;101583.06;5035215;28;19909;-44
2022/09/02 01:25:28;;;;;;;;;;;;;;;16.58;65.03;101579.72;5035844;28;19913;-43
2022/09/02 01:27:57;;;;;;;;;;;;;;;16.55;65.44;101585.47;5035371;28;19928;-44
2022/09/02 01:30:24;;;;;;;;;;;;;;;16.52;64.91;101585.00;5025737;28;19909;-43
2022/09/02 01:32:49;;;;;;;;;;;;;;;16.49;65.30;101588.06;5030106;28;20081;-43
2022/09/02 01:35:15;;;;;;;;;;;;;;;16.46;66.12;101581.16;5034137;28;19916;-43
2022/09/02 01:37:41;;;;;;;;;;;;;;;16.44;63.17;101583.22;5035219;28;20315;-44
2022/09/02 01:40:07;;;;;;;;;;;;;;;16.44;64.87;101585.06;5035256;28;19909;-43
2022/09/02 01:42:33;;;;;;;;;;;;;;;16.42;65.01;101574.47;5035761;28;19909;-43
2022/09/02 01:44:59;;;;;;;;;;;;;;;16.38;65.80;101576.69;5034362;28;19965;-44
2022/09/02 01:47:25;;;;;;;;;;;;;;;16.35;64.54;101577.06;5035092;28;19917;-43
2022/09/02 01:49:50;;;;;;;;;;;;;;;16.33;65.65;101572.88;5032919;28;19969;-42
2022/09/02 01:52:16;;;;;;;;;;;;;;;16.28;65.11;101565.31;5038041;28;19912;-45
2022/09/02 01:54:41;;;;;;;;;;;;;;;16.27;64.18;101573.59;5039002;28;20187;-43
2022/09/02 01:57:07;;;;;;;;;;;;;;;16.23;65.98;101573.94;5039023;28;19923;-44
2022/09/02 01:59:32;;;;;;;;;;;;;;;16.18;66.11;101578.22;5038791;28;20379;-43
2022/09/02 02:01:57;;;;;;;;;;;;;;;16.17;65.77;101573.84;5037716;28;20282;-43
2022/09/02 02:04:23;;;;;;;;;;;;;;;16.14;66.28;101575.03;5038373;28;20295;-46
2022/09/02 02:06:50;;;;;;;;;;;;;;;16.09;65.33;101566.66;5037136;28;19998;-43
2022/09/02 02:09:15;;;;;;;;;;;;;;;16.06;65.31;101568.88;5038425;28;19916;-42
2022/09/02 02:11:42;;;;;;;;;;;;;;;16.07;65.16;101568.69;5037954;28;20079;-43
2022/09/02 02:14:08;;;;;;;;;;;;;;;16.05;66.39;101568.03;5039302;28;19916;-46
2022/09/02 02:16:33;;;;;;;;;;;;;;;16.01;66.35;101564.84;5037441;28;20116;-43
2022/09/02 02:18:58;;;;;;;;;;;;;;;15.98;68.17;101559.81;5037947;28;19916;-42
2022/09/02 02:21:23;;;;;;;;;;;;;;;15.95;67.13;101567.41;5027524;28;20317;-41
2022/09/02 02:23:49;;;;;;;;;;;;;;;15.89;68.26;101560.06;5038263;28;19915;-42
2022/09/02 02:26:14;;;;;;;;;;;;;;;15.87;66.62;101556.69;5038961;28;19908;-43
2022/09/02 02:28:39;;;;;;;;;;;;;;;15.84;69.11;101563.28;5037064;28;20387;-42
2022/09/02 02:31:04;;;;;;;;;;;;;;;15.82;67.89;101560.78;5023408;28;19913;-42
2022/09/02 02:33:30;;;;;;;;;;;;;;;15.78;67.38;101554.09;5038227;28;20108;-42
2022/09/02 02:35:55;;;;;;;;;;;;;;;15.78;67.83;101554.09;5036821;28;19970;-44
2022/09/02 02:38:21;;;;;;;;;;;;;;;15.78;67.13;101553.22;5037982;28;20359;-43
2022/09/02 02:40:46;;;;;;;;;;;;;;;15.76;68.74;101558.78;5038283;28;20190;-45
2022/09/02 02:43:12;;;;;;;;;;;;;;;15.75;68.15;101553.53;5036686;28;20454;-45
2022/09/02 02:45:38;;;;;;;;;;;;;;;15.75;68.55;101553.53;5037263;28;19935;-43
2022/09/02 02:48:03;;;;;;;;;;;;;;;15.75;68.61;101553.53;5037534;28;19908;-44
2022/09/02 02:50:28;;;;;;;;;;;;;;;15.73;69.55;101550.19;5035100;28;19919;-44
2022/09/02 02:52:55;;;;;;;;;;;;;;;15.74;68.36;101546.50;5037378;28;19962;-47
2022/09/02 02:55:22;;;;;;;;;;;;;;;15.75;68.50;101550.84;5037987;28;20484;-44
2022/09/02 02:57:47;;;;;;;;;;;;;;;15.76;68.82;101541.78;5033129;28;20347;-42
2022/09/02 03:00:22;;;;;;;;;;;;;;;15.77;68.34;101549.69;5024991;28;19944;-43
2022/09/02 03:02:48;;;;;;;;;;;;;;;15.77;67.67;101546.19;5035671;28;19917;-43
2022/09/02 03:05:16;;;;;;;;;;;;;;;15.76;69.10;101541.78;5036987;28;19982;-44
2022/09/02 03:07:41;;;;;;;;;;;;;;;15.76;67.82;101542.63;5036877;28;19923;-43
2022/09/02 03:10:08;;;;;;;;;;;;;;;15.77;67.63;101544.31;5037474;28;20326;-44
2022/09/02 03:12:34;;;;;;;;;;;;;;;15.81;67.87;101545.63;5038071;28;19932;-44
2022/09/02 03:15:01;;;;;;;;;;;;;;;15.82;67.80;101547.31;5036601;28;20263;-42
2022/09/02 03:17:26;;;;;;;;;;;;;;;15.83;68.32;101545.44;5036508;28;20219;-41
2022/09/02 03:19:52;;;;;;;;;;;;;;;15.80;66.70;101546.66;5035731;28;20390;-43
2022/09/02 03:22:18;;;;;;;;;;;;;;;15.80;68.56;101546.66;5037056;28;19909;-42
2022/09/02 03:24:43;;;;;;;;;;;;;;;15.80;69.19;101545.78;5037734;28;19923;-44
2022/09/02 03:27:08;;;;;;;;;;;;;;;15.80;68.34;101543.09;5036322;28;20360;-43
2022/09/02 03:29:34;;;;;;;;;;;;;;;15.81;70.57;101542.09;5035226;28;20228;-45
2022/09/02 03:31:59;;;;;;;;;;;;;;;15.81;68.42;101542.09;5024621;28;19923;-43
2022/09/02 03:34:25;;;;;;;;;;;;;;;15.80;72.28;101543.09;5036832;28;19999;-45
2022/09/02 03:36:50;;;;;;;;;;;;;;;15.74;69.95;101539.25;5021966;28;20327;-43
2022/09/02 03:39:15;;;;;;;;;;;;;;;15.78;70.13;101537.06;5037608;28;19909;-44
2022/09/02 03:41:41;;;;;;;;;;;;;;;15.75;71.15;101532.88;5036686;28;19940;-43
2022/09/02 03:44:06;;;;;;;;;;;;;;;15.72;69.88;101532.38;5037554;28;20256;-44
2022/09/02 03:46:31;;;;;;;;;;;;;;;15.66;69.70;101532.06;5033488;28;19916;-44
2022/09/02 03:48:57;;;;;;;;;;;;;;;15.65;70.40;101527.69;5032773;28;20258;-45
2022/09/02 03:51:22;;;;;;;;;;;;;;;15.62;68.75;101527.22;5036782;28;20310;-42
2022/09/02 03:53:48;;;;;;;;;;;;;;;15.61;69.81;101526.38;5036686;28;19908;-47
2022/09/02 03:56:14;;;;;;;;;;;;;;;15.60;71.12;101521.19;5035967;28;20356;-43
2022/09/02 03:58:40;;;;;;;;;;;;;;;15.58;70.76;101518.66;5037426;28;19935;-43
2022/09/02 04:01:05;;;;;;;;;;;;;;;15.54;70.76;101516.50;5036454;28;20097;-43
2022/09/02 04:03:31;;;;;;;;;;;;;;;15.51;69.55;101514.16;5036596;28;20759;-43
2022/09/02 04:05:56;;;;;;;;;;;;;;;15.48;70.54;101512.66;5035573;28;19939;-46
2022/09/02 04:08:22;;;;;;;;;;;;;;;15.47;70.11;101508.28;5035227;28;19917;-43
2022/09/02 04:10:47;;;;;;;;;;;;;;;15.47;70.31;101509.09;5036476;28;19988;-43
2022/09/02 04:13:12;;;;;;;;;;;;;;;15.49;71.17;101517.00;5035505;28;19909;-42
2022/09/02 04:15:38;;;;;;;;;;;;;;;15.49;70.90;101511.63;5036012;28;19966;-43
2022/09/02 04:18:03;;;;;;;;;;;;;;;15.48;71.18;101516.19;5035869;28;19919;-44
2022/09/02 04:20:29;;;;;;;;;;;;;;;15.50;69.85;101507.94;5025063;28;20004;-44
2022/09/02 04:22:54;;;;;;;;;;;;;;;15.50;70.22;101509.78;5035966;28;19913;-45
2022/09/02 04:25:20;;;;;;;;;;;;;;;15.50;70.99;101507.09;5036204;28;20082;-44
2022/09/02 04:27:45;;;;;;;;;;;;;;;15.51;71.60;101495.31;5036787;28;20007;-42
2022/09/02 04:30:12;;;;;;;;;;;;;;;15.52;71.73;101505.06;5028419;28;20035;-45
2022/09/02 04:32:37;;;;;;;;;;;;;;;15.50;71.53;101501.72;5060801;28;19909;-43
2022/09/02 04:35:03;;;;;;;;;;;;;;;15.48;71.16;101505.41;5035222;28;19988;-43
2022/09/02 04:37:28;;;;;;;;;;;;;;;15.46;72.06;101499.38;5034708;28;20019;-45
2022/09/02 04:39:53;;;;;;;;;;;;;;;15.48;71.36;101493.81;5034479;28;19912;-43
2022/09/02 04:42:20;;;;;;;;;;;;;;;15.50;70.69;101494.47;5036162;28;19915;-45
2022/09/02 04:44:45;;;;;;;;;;;;;;;15.52;70.67;101500.50;5035715;28;19996;-42
2022/09/02 04:47:11;;;;;;;;;;;;;;;15.51;72.11;101501.50;5035389;28;19912;-43
2022/09/02 04:49:36;;;;;;;;;;;;;;;15.50;71.11;101502.53;5065749;28;19912;-44
2022/09/02 04:52:01;;;;;;;;;;;;;;;15.49;70.86;101503.56;5035437;28;19917;-42
2022/09/02 04:54:26;;;;;;;;;;;;;;;15.48;71.39;101504.59;5036211;28;20296;-46
2022/09/02 04:56:52;;;;;;;;;;;;;;;15.44;72.46;101496.03;5035695;28;19921;-42
2022/09/02 04:59:19;;;;;;;;;;;;;;;15.41;73.13;101498.22;5030109;28;20423;-41
2022/09/02 05:01:44;;;;;;;;;;;;;;;15.38;71.45;101499.41;5029206;28;20010;-42
2022/09/02 05:04:09;;;;;;;;;;;;;;;15.37;71.90;101496.91;5035266;28;19913;-44
2022/09/02 05:06:35;;;;;;;;;;;;;;;15.36;72.96;101498.75;5035242;28;20360;-43
2022/09/02 05:09:02;;;;;;;;;;;;;;;15.35;73.82;101493.56;5034491;28;20295;-44
2022/09/02 05:11:28;;;;;;;;;;;;;;;15.34;72.64;101502.63;5035680;28;20382;-44
2022/09/02 05:13:55;;;;;;;;;;;;;;;15.33;72.61;101498.28;5035456;28;19904;-44
2022/09/02 05:16:31;;;;;;;;;;;;;;;15.34;73.58;101497.25;5034803;28;19917;-44
2022/09/02 05:18:57;;;;;;;;;;;;;;;15.38;71.76;101502.09;5034666;28;19924;-46
2022/09/02 05:21:22;;;;;;;;;;;;;;;15.41;72.95;101498.22;5035910;28;19908;-44
2022/09/02 05:23:48;;;;;;;;;;;;;;;15.45;71.87;101502.25;5034491;28;19909;-43
2022/09/02 05:26:13;;;;;;;;;;;;;;;15.48;73.13;101508.09;5038070;28;20351;-46
2022/09/02 05:28:39;;;;;;;;;;;;;;;15.52;72.70;101503.19;5032546;28;20240;-42
2022/09/02 05:31:05;;;;;;;;;;;;;;;15.55;73.74;101500.16;5024368;28;19913;-42
2022/09/02 05:33:32;;;;;;;;;;;;;;;15.60;72.26;101508.53;5039360;28;19952;-43
2022/09/02 05:35:58;;;;;;;;;;;;;;;15.66;72.23;101505.16;5039132;28;19908;-43
2022/09/02 05:38:24;;;;;;;;;;;;;;;15.70;73.21;101504.75;5039222;28;20322;-45
2022/09/02 05:40:49;;;;;;;;;;;;;;;15.73;72.70;101501.72;5038525;28;20329;-42
2022/09/02 05:43:14;;;;;;;;;;;;;;;15.76;72.72;101499.53;5037607;28;19913;-42
2022/09/02 05:45:39;;;;;;;;;;;;;;;15.80;73.87;101500.00;5037354;28;20135;-44
2022/09/02 05:49:04;;;;;;;;;;;;;;;15.85;73.25;101498.47;5036336;28;19985;-43
2022/09/02 05:50:50;;;;;;;;;;;;;;;15.91;73.12;101509.53;5037651;28;20031;-43
2022/09/02 05:53:15;;;;;;;;;;;;;;;15.96;73.14;101512.53;5038936;28;19909;-44
2022/09/02 05:55:40;;;;;;;;;;;;;;;15.99;72.32;101504.94;5038201;28;20101;-42
2022/09/02 05:58:06;;;;;;;;;;;;;;;16.02;72.91;101496.50;5038262;28;19966;-42
2022/09/02 06:00:31;;;;;;;;;;;;;;;16.09;72.84;101507.38;5037546;28;19909;-44
2022/09/02 06:02:56;;;;;;;;;;;;;;;16.16;72.92;101510.19;5038425;28;20363;-44
2022/09/02 06:05:21;;;;;;;;;;;;;;;16.17;72.90;101506.47;5037356;28;19948;-43
2022/09/02 06:07:46;;;;;;;;;;;;;;;16.21;72.51;101500.53;5038105;28;19978;-44
2022/09/02 06:10:12;;;;;;;;;;;;;;;16.25;72.26;101501.00;5038619;28;20284;-43
2022/09/02 06:12:37;;;;;;;;;;;;;;;16.28;72.59;101497.94;5038526;28;19999;-41
2022/09/02 06:15:02;;;;;;;;;;;;;;;16.32;71.57;101501.09;5036652;28;19912;-42
2022/09/02 06:17:28;;;;;;;;;;;;;;;16.36;72.55;101503.25;5036609;28;20278;-46
2022/09/02 06:19:53;;;;;;;;;;;;;;;16.42;72.60;101504.38;5037450;28;19915;-42
2022/09/02 06:22:18;;;;;;;;;;;;;;;16.45;72.38;101495.94;5038231;28;19908;-44
2022/09/02 06:24:44;;;;;;;;;;;;;;;16.46;72.59;101497.59;5038727;28;19913;-44
2022/09/02 06:27:09;;;;;;;;;;;;;;;16.50;72.10;101504.31;5038543;28;19934;-43
2022/09/02 06:29:34;;;;;;;;;;;;;;;16.52;71.91;101504.13;5035996;28;20352;-41
2022/09/02 06:31:59;;;;;;;;;;;;;;;16.55;72.20;101507.28;5025534;28;19908;-43
2022/09/02 06:34:26;;;;;;;;;;;;;;;16.57;72.75;101502.53;5036905;28;19989;-42
2022/09/02 06:36:51;;;;;;;;;;;;;;;16.62;72.40;101498.47;5037623;28;19912;-45
2022/09/02 06:39:18;;;;;;;;;;;;;;;16.66;71.38;101500.59;5032199;28;19942;-43
2022/09/02 06:41:45;;;;;;;;;;;;;;;16.74;72.66;101505.06;5038493;28;19908;-43
2022/09/02 06:44:11;;;;;;;;;;;;;;;16.79;71.62;101498.06;5038812;28;19958;-43
2022/09/02 06:46:38;;;;;;;;;;;;;;;16.86;72.09;101500.06;5035334;28;19912;-41
2022/09/02 06:49:04;;;;;;;;;;;;;;;16.92;71.65;101497.47;5037114;28;19982;-47
2022/09/02 06:51:34;;;;;;;;;;;;;;;16.96;71.13;101495.22;5037813;28;19931;-44
2022/09/02 06:54:00;;;;;;;;;;;;;;;17.00;71.62;101491.13;5037896;28;19909;-43
2022/09/02 06:56:25;;;;;;;;;;;;;;;17.03;71.64;101493.44;5037715;28;19924;-42
2022/09/02 06:58:50;;;;;;;;;;;;;;;17.09;71.18;101492.72;5034924;28;20907;-44
2022/09/02 07:01:17;;;;;;;;;;;;;;;17.19;71.75;101496.97;5027927;28;19908;-44
2022/09/02 07:06:26;;;;;;;;;;;;;;;17.34;71.21;101493.22;5033194;28;20197;-42
2022/09/02 07:08:51;;;;;;;;;;;;;;;17.42;70.91;101486.84;5032504;28;19916;-43
2022/09/02 07:11:21;;;;;;;;;;;;;;;17.50;70.39;101486.75;5037210;28;19913;-43
2022/09/02 07:13:46;;;;;;;;;;;;;;;17.56;70.12;101479.72;5037505;28;20273;-46
2022/09/02 07:16:12;;;;;;;;;;;;;;;17.63;69.46;101486.03;5034673;28;19939;-43
2022/09/02 07:18:37;;;;;;;;;;;;;;;17.74;69.50;101484.69;5036669;28;20011;-45
2022/09/02 07:21:03;;;;;;;;;;;;;;;17.84;68.93;101481.69;5036498;28;19913;-46
2022/09/02 07:23:28;;;;;;;;;;;;;;;17.93;69.04;101485.94;5035449;28;19955;-42
2022/09/02 07:25:54;;;;;;;;;;;;;;;18.03;68.99;101482.91;5036285;28;19919;-44
2022/09/02 07:28:20;;;;;;;;;;;;;;;18.11;68.84;101484.63;5037314;28;19938;-42
2022/09/02 07:30:45;;;;;;;;;;;;;;;18.19;68.64;101477.19;5024244;28;20450;-45
2022/09/02 07:33:12;;;;;;;;;;;;;;;18.26;68.70;101483.53;5035118;28;20248;-43
2022/09/02 07:35:37;;;;;;;;;;;;;;;18.35;67.52;101483.38;5036972;28;19909;-45
2022/09/02 07:38:03;;;;;;;;;;;;;;;18.46;67.46;101477.41;5035847;28;19943;-43
2022/09/02 07:40:28;;;;;;;;;;;;;;;18.57;67.72;101479.56;5068138;28;20174;-44
2022/09/02 07:42:54;;;;;;;;;;;;;;;18.65;67.07;101478.56;5035516;28;20267;-42
2022/09/02 07:45:19;;;;;;;;;;;;;;;18.72;66.73;101468.63;5035442;28;20372;-43
2022/09/02 07:47:44;;;;;;;;;;;;;;;18.82;66.16;101470.94;5036096;28;19915;-43
2022/09/02 07:50:12;;;;;;;;;;;;;;;18.90;66.19;101475.41;5033127;28;19908;-42
2022/09/02 07:52:37;;;;;;;;;;;;;;;18.96;66.45;101480.84;5036029;28;19915;-42
2022/09/02 07:55:02;;;;;;;;;;;;;;;18.98;64.75;101473.34;5035803;28;19978;-43
2022/09/02 07:57:28;;;;;;;;;;;;;;;19.04;66.21;101473.59;5034087;28;19970;-42
2022/09/02 07:59:53;;;;;;;;;;;;;;;19.11;65.34;101479.84;5035635;28;19984;-44
2022/09/02 08:02:18;;;;;;;;;;;;;;;19.15;65.02;101484.66;5035106;28;20445;-41
2022/09/02 08:04:44;;;;;;;;;;;;;;;19.20;65.74;101490.31;5035537;28;20003;-42
2022/09/02 08:07:09;;;;;;;;;;;;;;;19.26;65.68;101485.13;5036013;28;20379;-44
2022/09/02 08:09:35;;;;;;;;;;;;;;;19.32;65.13;101478.91;5036100;28;19917;-44
2022/09/02 08:12:00;;;;;;;;;;;;;;;19.38;64.75;101481.63;5034526;28;19908;-44
2022/09/02 08:14:27;;;;;;;;;;;;;;;19.44;65.08;101474.56;5035859;28;20235;-42
2022/09/02 08:16:54;;;;;;;;;;;;;;;19.54;64.68;101474.16;5035151;28;20015;-42
2022/09/02 08:19:20;;;;;;;;;;;;;;;19.64;64.45;101473.78;5034766;28;19908;-43
2022/09/02 08:21:45;;;;;;;;;;;;;;;19.74;64.29;101472.34;5035991;28;20016;-43
2022/09/02 08:24:10;;;;;;;;;;;;;;;19.89;64.47;101472.16;5035856;28;20328;-41
2022/09/02 08:26:36;;;;;;;;;;;;;;;20.04;64.28;101476.53;5036071;28;19911;-41
2022/09/02 08:29:02;;;;;;;;;;;;;;;20.17;63.64;101465.69;5035989;28;20279;-43
2022/09/02 08:31:27;;;;;;;;;;;;;;;20.26;63.18;101467.13;5020888;28;19909;-45
2022/09/02 08:33:53;;;;;;;;;;;;;;;20.36;63.26;101466.69;5035450;28;20272;-42
2022/09/02 08:36:19;;;;;;;;;;;;;;;20.50;63.75;101459.38;5035458;28;19916;-42
2022/09/02 08:38:45;;;;;;;;;;;;;;;20.64;62.90;101463.75;5027678;28;19915;-42
2022/09/02 08:41:12;;;;;;;;;;;;;;;20.76;63.02;101449.53;5034620;28;19908;-42
2022/09/02 08:43:40;;;;;;;;;;;;;;;20.90;63.38;101453.03;5036197;28;20333;-43
2022/09/02 08:46:08;;;;;;;;;;;;;;;21.06;63.14;101460.69;5033940;28;19923;-43
2022/09/02 08:48:54;;;;;;;;;;;;;;;21.19;62.04;101457.06;5034215;28;19912;-42
2022/09/02 08:51:22;;;;;;;;;;;;;;;21.30;62.07;101455.53;5034393;28;20015;-45
2022/09/02 08:53:51;;;;;;;;;;;;;;;21.42;61.28;101462.81;5035195;28;19916;-44
2022/09/02 08:56:17;;;;;;;;;;;;;;;21.51;61.34;101449.00;5035619;28;19901;-45
2022/09/02 08:58:43;;;;;;;;;;;;;;;21.63;61.16;101454.56;5035898;28;20398;-45
2022/09/02 09:01:11;;;;;;;;;;;;;;;21.71;61.34;101457.84;5038273;28;19931;-43
2022/09/02 09:03:42;;;;;;;;;;;;;;;21.83;60.97;101459.84;5038705;28;19909;-44
2022/09/02 09:06:28;;;;;;;;;;;;;;;21.94;59.26;101459.94;5038956;28;19913;-42
2022/09/02 09:08:53;;;;;;;;;;;;;;;21.97;59.87;101456.78;5030835;28;19921;-43
2022/09/02 09:11:19;;;;;;;;;;;;;;;22.06;59.97;101459.22;5039784;28;19919;-42
2022/09/02 09:14:03;;;;;;;;;;;;;;;22.16;59.70;101456.81;5039942;28;20435;-43
2022/09/02 09:16:39;;;;;;;;;;;;;;;22.23;59.67;101460.31;5037079;28;20175;-43
2022/09/02 09:19:10;;;;;;;;;;;;;;;22.29;58.78;101450.47;5038249;28;20395;-45
2022/09/02 09:21:36;;;;;;;;;;;;;;;22.40;59.10;101452.44;5039200;28;19991;-43
2022/09/02 09:24:05;;;;;;;;;;;;;;;22.45;58.33;101452.59;5038852;28;20457;-43
2022/09/02 09:26:33;;;;;;;;;;;;;;;22.54;60.87;101447.72;5039037;28;20316;-43
2022/09/02 09:28:58;;;;;;;;;;;;;;;22.70;58.68;101455.25;5037708;28;20187;-47
2022/09/02 09:31:28;;;;;;;;;;;;;;;22.81;57.05;101455.53;5023914;28;20123;-43
2022/09/02 09:33:59;;;;;;;;;;;;;;;22.80;57.85;101453.91;5038277;28;19995;-43
2022/09/02 09:36:44;;;;;;;;;;;;;;;22.86;58.34;101451.09;5037687;28;19944;-43
2022/09/02 09:39:20;;;;;;;;;;;;;;;23.02;58.51;101446.09;5038638;28;19962;-42
2022/09/02 09:41:46;;;;;;;;;;;;;;;23.16;57.73;101449.50;5037208;28;20438;-44
2022/09/02 09:44:32;;;;;;;;;;;;;;;23.26;56.44;101447.03;5039276;28;20007;-44
2022/09/02 09:47:01;;;;;;;;;;;;;;;23.37;56.86;101440.81;5037856;28;19999;-44
2022/09/02 09:49:26;;;;;;;;;;;;;;;23.52;55.97;101440.34;5034708;28;19909;-43
2022/09/02 09:51:53;;;;;;;;;;;;;;;23.65;55.27;101436.59;5037573;28;19979;-44
2022/09/02 09:54:18;;;;;;;;;;;;;;;23.80;53.79;101434.25;5038706;28;19943;-44
2022/09/02 09:56:43;;;;;;;;;;;;;;;23.85;53.31;101433.59;5038878;28;19968;-43
2022/09/02 09:59:28;;;;;;;;;;;;;;;23.93;53.61;101432.41;5039140;28;20331;-43
2022/09/02 10:01:54;;;;;;;;;;;;;;;24.06;51.07;101429.44;5038018;28;19928;-46
2022/09/02 10:04:30;;;;;;;;;;;;;;;24.18;52.48;101434.91;5037531;28;19917;-45
2022/09/02 10:06:56;;;;;;;;;;;;;;;24.32;51.82;101430.03;5037523;28;19912;-45
2022/09/02 10:09:24;;;;;;;;;;;;;;;24.49;51.25;101425.50;5038542;28;19924;-46
2022/09/02 10:12:06;;;;;;;;;;;;;;;24.66;51.08;101431.09;5037810;28;20422;-44
2022/09/02 10:14:37;;;;;;;;;;;;;;;24.84;50.73;101429.25;5037770;28;19951;-45
2022/09/02 10:17:13;;;;;;;;;;;;;;;25.04;50.81;101424.19;5037015;28;20324;-42
2022/09/02 10:19:54;;;;;;;;;;;;;;;25.21;50.15;101417.94;5037733;28;19919;-43
2022/09/02 10:22:38;;;;;;;;;;;;;;;25.34;49.12;101420.41;5037708;28;19908;-43
2022/09/02 10:25:15;;;;;;;;;;;;;;;25.50;49.55;101408.63;5038189;28;19974;-44
2022/09/02 10:27:53;;;;;;;;;;;;;;;25.66;50.09;101409.75;5037556;28;19920;-44
2022/09/02 10:30:22;;;;;;;;;;;;;;;25.77;48.49;101401.69;5029285;28;19917;-44
2022/09/02 10:32:50;;;;;;;;;;;;;;;25.90;47.06;101392.31;5030931;28;20303;-44
2022/09/02 10:35:34;;;;;;;;;;;;;;;25.95;44.86;101381.47;5037776;28;19908;-45
2022/09/02 10:38:24;;;;;;;;;;;;;;;26.13;47.27;101391.31;5029688;28;20410;-48
2022/09/02 10:40:54;;;;;;;;;;;;;;;26.24;47.25;101393.94;5036643;28;19959;-43
2022/09/02 10:43:19;;;;;;;;;;;;;;;26.30;45.35;101388.53;5037748;28;19919;-45
2022/09/02 10:45:49;;;;;;;;;;;;;;;26.42;46.26;101389.22;5037249;28;19996;-45
2022/09/02 10:48:33;;;;;;;;;;;;;;;26.47;46.24;101393.94;5037216;28;20271;-44
2022/09/02 10:50:58;;;;;;;;;;;;;;;26.58;45.58;101385.59;5037250;28;20368;-44
2022/09/02 10:53:49;;;;;;;;;;;;;;;26.69;42.29;101391.25;5036415;28;19939;-43
2022/09/02 10:56:20;;;;;;;;;;;;;;;26.77;41.06;101390.78;5037398;28;19912;-43
2022/09/02 10:58:45;;;;;;;;;;;;;;;26.71;40.12;101387.16;5037697;28;19925;-43
2022/09/02 11:01:18;;;;;;;;;;;;;;;26.79;41.44;101383.97;5036886;28;19909;-43
2022/09/02 11:03:56;;;;;;;;;;;;;;;26.87;38.70;101382.69;5036350;28;20340;-46
2022/09/02 11:06:29;;;;;;;;;;;;;;;26.88;38.98;101381.59;5037450;28;19908;-47
2022/09/02 11:09:00;;;;;;;;;;;;;;;26.92;37.26;101366.28;5034676;28;19917;-47
2022/09/02 11:11:25;;;;;;;;;;;;;;;27.03;37.79;101366.41;5069369;28;19909;-45
2022/09/02 11:13:53;;;;;;;;;;;;;;;27.17;38.57;101368.47;5037111;28;20548;-44
2022/09/02 11:16:23;;;;;;;;;;;;;;;27.30;35.42;101360.91;5034559;28;19913;-45
2022/09/02 11:18:58;;;;;;;;;;;;;;;27.41;35.22;101370.06;5036659;28;20292;-44
2022/09/02 11:21:42;;;;;;;;;;;;;;;27.48;36.09;101354.22;5036650;28;19919;-44
2022/09/02 11:24:16;;;;;;;;;;;;;;;27.54;36.23;101351.22;5035859;28;20391;-46
2022/09/02 11:26:48;;;;;;;;;;;;;;;27.67;35.63;101349.16;5037409;28;19956;-43
2022/09/02 11:29:18;;;;;;;;;;;;;;;27.79;34.20;101346.19;5037355;28;20391;-42
2022/09/02 11:31:46;;;;;;;;;;;;;;;27.86;34.22;101342.13;5021832;28;20334;-42
2022/09/02 11:34:33;;;;;;;;;;;;;;;27.96;32.28;101348.81;5036153;28;20282;-45
2022/09/02 11:37:04;;;;;;;;;;;;;;;28.04;33.14;101348.31;5035788;28;20012;-46
2022/09/02 11:39:38;;;;;;;;;;;;;;;28.06;32.07;101337.88;5036283;28;20011;-48
2022/09/02 11:42:03;;;;;;;;;;;;;;;28.12;31.32;101334.03;5036621;28;19952;-46
2022/09/02 11:44:31;;;;;;;;;;;;;;;28.17;30.51;101336.81;5035843;28;20414;-43
2022/09/02 11:47:06;;;;;;;;;;;;;;;28.21;29.82;101332.47;5034801;28;20010;-44
2022/09/02 11:49:50;;;;;;;;;;;;;;;28.21;31.76;101335.19;5032515;28;20220;-45
2022/09/02 11:52:15;;;;;;;;;;;;;;;28.22;30.79;101325.84;5036739;28;20364;-45
2022/09/02 11:54:43;;;;;;;;;;;;;;;28.05;32.95;101322.47;5034708;28;19961;-43
2022/09/02 11:57:28;;;;;;;;;;;;;;;28.12;31.16;101325.00;5035545;28;19939;-45
2022/09/02 11:59:56;;;;;;;;;;;;;;;28.22;30.99;101317.59;5035597;28;19909;-42
2022/09/02 12:02:42;;;;;;;;;;;;;;;28.46;30.89;101328.13;5035462;28;19916;-44
2022/09/02 12:05:28;;;;;;;;;;;;;;;28.59;29.81;101321.34;5035536;28;20567;-44
2022/09/02 12:07:54;;;;;;;;;;;;;;;28.70;29.69;101322.19;5034386;28;19917;-46
2022/09/02 12:10:38;;;;;;;;;;;;;;;28.75;30.43;101314.81;5035275;28;19923;-46
2022/09/02 12:13:04;;;;;;;;;;;;;;;28.60;29.46;101312.84;5035703;28;20390;-42
2022/09/02 12:15:29;;;;;;;;;;;;;;;28.19;30.19;101318.16;5034776;28;19958;-47
2022/09/02 12:17:55;;;;;;;;;;;;;;;28.08;30.46;101311.78;5033135;28;19917;-44
2022/09/02 12:20:43;;;;;;;;;;;;;;;28.31;31.48;101319.84;5035956;28;19908;-43
2022/09/02 12:23:09;;;;;;;;;;;;;;;28.67;30.98;101307.09;5035099;28;19915;-44
2022/09/02 12:25:37;;;;;;;;;;;;;;;29.08;28.66;101290.63;5034915;28;19908;-44
2022/09/02 12:28:14;;;;;;;;;;;;;;;29.31;29.43;101303.03;5035439;28;19909;-44
2022/09/02 12:30:55;;;;;;;;;;;;;;;29.60;29.37;101298.84;5023851;28;19916;-43
2022/09/02 12:33:30;;;;;;;;;;;;;;;29.94;31.29;101296.34;5033907;28;19959;-47
2022/09/02 12:35:57;;;;;;;;;;;;;;;30.19;28.88;101295.38;5035655;28;19908;-44
2022/09/02 12:38:22;;;;;;;;;;;;;;;30.54;29.88;101290.00;5027190;28;19912;-44
2022/09/02 12:40:53;;;;;;;;;;;;;;;31.14;27.00;101284.34;5033460;28;20376;-45